CheckWX is a tool to help pilots better visualize weather data.  It is not intended as a substitute for an official pre-flight weather briefing.

21:52:02 UTC

KWRI TAF
Mc Guire Field (Joint Base Mc Guire Dix Lakehurst) Airport
Wrightstown, New Jersey, USA
TAF KWRI 191800Z 1918/2024 05006KT 9999 FEW035 QNH3022INS BECMG 1922/1923 VRB06KT 9999 SKC QNH3024INS BECMG 2012/2013 28006KT 9999 SKC QNH3022INS TX23/1920Z TN08/2010Z

Sep-19@
18:00 UTC

Sep-19 @ 18:00 UTC

Sep-19@
22:00 UTC

Sep-19 @ 22:00 UTC

TAF KWRI 191800Z 1918/2024 05006KT 9999 FEW035 QNH3022INS
Wind
  • 050° at 6 KTS
Cloud Levels
  • Few at 3,500' AGL

Sep-19@
22:00 UTC

Sep-19 @ 22:00 UTC

Sep-20@
12:00 UTC

Sep-20 @ 12:00 UTC

BECMG 1922/1923 VRB06KT 9999 SKC QNH3024INS

Becoming

Becoming Conditions expected by Thu, Sep 19, 2019 @ 23:00 UTC

Wind
  • Variable at 6 KTS
Cloud Levels
  • Clear skies

Sep-20@
12:00 UTC

Sep-20 @ 12:00 UTC

Sep-21@
00:00 UTC

Sep-21 @ 00:00 UTC

BECMG 2012/2013 28006KT 9999 SKC QNH3022INS TX23/1920Z TN08/2010Z

Becoming

Becoming Conditions expected by Fri, Sep 20, 2019 @ 13:00 UTC

Wind
  • 280° at 6 KTS
Cloud Levels
  • Clear skies